createdAt,value
2018-05-29T00:02:09.207Z,99.90
2018-05-29T00:04:39.337Z,99.90
2018-05-29T00:07:08.474Z,99.90
2018-05-29T00:09:38.531Z,99.90
2018-05-29T00:12:07.973Z,99.90
2018-05-29T00:14:55.253Z,99.90
2018-05-29T00:17:24.565Z,99.90
2018-05-29T00:19:53.872Z,99.90
2018-05-29T00:22:23.193Z,99.90
2018-05-29T00:24:52.376Z,99.90
2018-05-29T00:27:21.564Z,99.90
2018-05-29T00:29:50.774Z,99.90
2018-05-29T00:32:20.866Z,99.90
2018-05-29T00:34:50.269Z,99.90
2018-05-29T00:37:19.569Z,99.90
2018-05-29T00:39:48.721Z,99.90
2018-05-29T00:42:17.909Z,99.90
2018-05-29T00:44:47.869Z,99.90
2018-05-29T00:47:17.073Z,99.90
2018-05-29T00:49:46.338Z,99.90
2018-05-29T00:52:16.298Z,99.90
2018-05-29T00:54:57.470Z,99.90
2018-05-29T00:57:28.502Z,99.90
2018-05-29T00:59:57.812Z,99.90
2018-05-29T01:02:27.085Z,99.90
2018-05-29T01:04:56.265Z,99.90
2018-05-29T01:07:26.241Z,99.90
2018-05-29T01:09:55.631Z,99.90
2018-05-29T01:12:24.927Z,99.90
2018-05-29T01:14:54.145Z,99.90
2018-05-29T01:17:23.317Z,99.90
2018-05-29T01:19:52.486Z,99.90
2018-05-29T01:22:21.777Z,99.90
2018-05-29T01:24:51.926Z,99.90
2018-05-29T01:27:33.121Z,99.90
2018-05-29T01:30:02.313Z,99.90
2018-05-29T01:32:31.579Z,99.90
2018-05-29T01:35:01.743Z,99.90
2018-05-29T01:37:31.128Z,99.90
2018-05-29T01:40:00.280Z,99.90
2018-05-29T01:42:30.060Z,99.90
2018-05-29T01:44:59.291Z,99.90
2018-05-29T01:47:28.622Z,99.90
2018-05-29T01:50:11.470Z,99.90
2018-05-29T01:52:40.641Z,99.90
2018-05-29T01:55:09.889Z,99.90
2018-05-29T01:57:39.165Z,99.90
2018-05-29T02:00:08.304Z,99.90
2018-05-29T02:02:38.329Z,99.90
2018-05-29T02:05:08.388Z,99.90
2018-05-29T02:07:37.601Z,99.90
2018-05-29T02:10:06.749Z,99.90
2018-05-29T02:12:36.810Z,99.90
2018-05-29T02:15:06.030Z,99.90
2018-05-29T02:17:35.315Z,99.90
2018-05-29T02:20:04.606Z,99.90
2018-05-29T02:22:34.782Z,99.90
2018-05-29T02:25:04.947Z,99.90
2018-05-29T02:27:34.134Z,99.90
2018-05-29T02:30:03.454Z,99.90
2018-05-29T02:32:55.716Z,99.90
2018-05-29T02:35:25.075Z,99.90
2018-05-29T02:37:54.323Z,99.90
2018-05-29T02:40:23.628Z,99.90
2018-05-29T02:42:53.692Z,99.90
2018-05-29T02:45:22.869Z,99.90
2018-05-29T02:47:52.306Z,99.90
2018-05-29T02:50:21.665Z,99.90
2018-05-29T02:52:51.723Z,99.90
2018-05-29T02:55:20.895Z,99.90
2018-05-29T02:57:50.098Z,99.90
2018-05-29T03:00:19.307Z,99.90
2018-05-29T03:02:48.667Z,99.90
2018-05-29T03:05:18.594Z,99.90
2018-05-29T03:07:47.937Z,99.90
2018-05-29T03:10:17.285Z,99.90
2018-05-29T03:12:52.681Z,99.90
2018-05-29T03:15:22.047Z,99.90
2018-05-29T03:17:52.006Z,99.90
2018-05-29T03:20:21.299Z,99.90
2018-05-29T03:22:50.694Z,99.90
2018-05-29T03:25:19.916Z,99.90
2018-05-29T03:27:49.194Z,99.90
2018-05-29T03:30:18.412Z,99.90
2018-05-29T03:32:47.803Z,99.90
2018-05-29T03:35:17.003Z,99.90
2018-05-29T03:37:46.299Z,99.90
2018-05-29T03:40:15.548Z,99.90
2018-05-29T03:42:45.719Z,99.90
2018-05-29T03:45:15.942Z,99.90
2018-05-29T03:47:45.138Z,99.90
2018-05-29T03:50:14.329Z,99.90
2018-05-29T03:52:43.538Z,99.90
2018-05-29T03:55:12.733Z,99.90
2018-05-29T03:57:42.107Z,99.90
2018-05-29T04:00:13.097Z,99.90
2018-05-29T04:02:42.477Z,99.90
2018-05-29T04:05:13.314Z,99.90
2018-05-29T04:07:42.525Z,99.90
2018-05-29T04:10:18.774Z,99.90
2018-05-29T04:12:48.176Z,99.90
2018-05-29T04:15:17.476Z,99.90
2018-05-29T04:17:46.693Z,99.90
2018-05-29T04:20:16.083Z,99.90
2018-05-29T04:22:45.411Z,99.90
2018-05-29T04:25:19.845Z,99.90
2018-05-29T04:27:49.123Z,99.90
2018-05-29T04:30:18.480Z,99.90
2018-05-29T04:32:47.899Z,99.90
2018-05-29T04:35:17.090Z,99.90
2018-05-29T04:37:52.196Z,99.90
2018-05-29T04:40:22.168Z,99.90
2018-05-29T04:42:52.479Z,99.90
2018-05-29T04:45:21.780Z,99.90
2018-05-29T04:47:51.076Z,99.90
2018-05-29T04:50:20.307Z,99.90
2018-05-29T04:52:53.048Z,99.90
2018-05-29T04:55:26.765Z,99.90
2018-05-29T04:57:59.664Z,99.90
2018-05-29T05:00:28.943Z,99.90
2018-05-29T05:02:58.245Z,99.90
2018-05-29T05:05:27.544Z,99.90
2018-05-29T05:07:56.847Z,99.90
2018-05-29T05:10:26.051Z,99.90
2018-05-29T05:12:59.695Z,99.90
2018-05-29T05:15:28.972Z,99.90
2018-05-29T05:17:58.144Z,99.90
2018-05-29T05:20:27.353Z,99.90
2018-05-29T05:22:56.729Z,99.90
2018-05-29T05:25:30.543Z,99.90
2018-05-29T05:28:00.728Z,99.90
2018-05-29T05:30:30.892Z,99.90
2018-05-29T05:33:00.078Z,99.90
2018-05-29T05:35:40.814Z,99.90
2018-05-29T05:38:10.012Z,99.90
2018-05-29T05:40:39.207Z,99.90
2018-05-29T05:43:08.879Z,99.90
2018-05-29T05:45:38.085Z,99.90
2018-05-29T05:48:07.293Z,99.90
2018-05-29T05:50:37.366Z,99.90
2018-05-29T05:53:06.548Z,99.90
2018-05-29T05:55:35.873Z,99.90
2018-05-29T05:58:05.052Z,99.90
2018-05-29T06:00:34.285Z,99.90
2018-05-29T06:03:03.498Z,99.70
2018-05-29T06:05:32.772Z,98.50
2018-05-29T06:08:02.037Z,97.30
2018-05-29T06:10:31.232Z,96.00
2018-05-29T06:13:00.413Z,95.30
2018-05-29T06:15:30.441Z,92.80
2018-05-29T06:17:59.694Z,92.70
2018-05-29T06:20:28.927Z,92.60
2018-05-29T06:22:58.070Z,91.20
2018-05-29T06:25:27.266Z,91.30
2018-05-29T06:27:56.527Z,90.50
2018-05-29T06:30:25.741Z,89.40
2018-05-29T06:32:55.702Z,88.90
2018-05-29T06:35:24.921Z,88.90
2018-05-29T06:37:54.964Z,85.90
2018-05-29T06:40:24.160Z,85.90
2018-05-29T06:42:53.348Z,83.90
2018-05-29T06:45:23.347Z,86.80
2018-05-29T06:47:56.245Z,86.80
2018-05-29T06:50:25.503Z,87.30
2018-05-29T06:52:54.710Z,85.60
2018-05-29T06:55:23.891Z,82.90
2018-05-29T06:57:53.159Z,81.60
2018-05-29T07:00:22.379Z,79.70
2018-05-29T07:02:51.540Z,81.90
2018-05-29T07:05:20.717Z,81.10
2018-05-29T07:07:49.892Z,82.70
2018-05-29T07:10:19.126Z,82.00
2018-05-29T07:12:48.332Z,78.60
2018-05-29T07:15:18.287Z,78.50
2018-05-29T07:17:47.487Z,78.50
2018-05-29T07:20:16.685Z,78.70
2018-05-29T07:22:45.694Z,78.20
2018-05-29T07:25:14.925Z,78.10
2018-05-29T07:27:44.909Z,74.80
2018-05-29T07:30:14.120Z,74.80
2018-05-29T07:32:43.330Z,70.50
2018-05-29T07:35:12.484Z,70.70
2018-05-29T07:37:41.689Z,70.00
2018-05-29T07:40:10.922Z,68.30
2018-05-29T07:42:40.105Z,67.40
2018-05-29T07:45:09.290Z,65.80
2018-05-29T07:47:38.491Z,64.60
2018-05-29T07:50:07.671Z,64.20
2018-05-29T07:52:36.834Z,63.50
2018-05-29T07:55:06.733Z,62.30
2018-05-29T07:57:35.943Z,62.30
2018-05-29T08:00:05.141Z,61.40
2018-05-29T08:02:35.051Z,59.60
2018-05-29T08:05:05.049Z,59.60
2018-05-29T08:07:34.252Z,59.60
2018-05-29T08:10:03.452Z,59.90
2018-05-29T08:12:32.716Z,61.40
2018-05-29T08:15:01.899Z,61.40
2018-05-29T08:17:31.064Z,59.90
2018-05-29T08:20:01.045Z,60.10
2018-05-29T08:22:30.338Z,59.90
2018-05-29T08:25:00.250Z,61.70
2018-05-29T08:27:29.487Z,61.70
2018-05-29T08:29:58.754Z,61.10
2018-05-29T08:32:27.944Z,60.90
2018-05-29T08:34:57.147Z,59.50
2018-05-29T08:37:26.342Z,59.00
2018-05-29T08:39:55.488Z,57.80
2018-05-29T08:42:25.604Z,57.00
2018-05-29T08:44:55.579Z,56.20
2018-05-29T08:47:24.943Z,56.20
2018-05-29T08:49:57.954Z,55.20
2018-05-29T08:52:27.162Z,54.60
2018-05-29T08:54:56.372Z,54.00
2018-05-29T08:57:25.518Z,54.20
2018-05-29T08:59:54.696Z,54.10
2018-05-29T09:02:23.896Z,54.30
2018-05-29T09:04:53.070Z,54.40
2018-05-29T09:07:22.207Z,55.30
2018-05-29T09:09:52.162Z,57.40
2018-05-29T09:12:21.463Z,57.40
2018-05-29T09:14:51.413Z,58.20
2018-05-29T09:17:21.323Z,57.80
2018-05-29T09:19:51.324Z,57.30
2018-05-29T09:22:20.545Z,57.30
2018-05-29T09:24:50.489Z,56.70
2018-05-29T09:27:19.708Z,56.70
2018-05-29T09:29:49.041Z,55.80
2018-05-29T09:32:18.948Z,54.90
2018-05-29T09:34:48.122Z,54.90
2018-05-29T09:37:17.272Z,54.30
2018-05-29T09:39:46.493Z,53.90
2018-05-29T09:42:15.728Z,53.60
2018-05-29T09:44:45.015Z,53.60
2018-05-29T09:47:14.240Z,52.90
2018-05-29T09:49:43.407Z,53.50
2018-05-29T09:52:12.620Z,53.70
2018-05-29T09:54:41.874Z,53.70
2018-05-29T09:57:11.074Z,53.20
2018-05-29T09:59:41.046Z,52.70
2018-05-29T10:02:10.323Z,52.70
2018-05-29T10:04:39.464Z,53.00
2018-05-29T10:07:08.794Z,52.40
2018-05-29T10:09:37.813Z,51.90
2018-05-29T10:12:07.025Z,52.10
2018-05-29T10:14:36.212Z,51.30
2018-05-29T10:17:05.423Z,50.90
2018-05-29T10:19:34.619Z,50.80
2018-05-29T10:22:03.853Z,50.70
2018-05-29T10:24:33.070Z,50.20
2018-05-29T10:27:03.038Z,49.40
2018-05-29T10:29:32.247Z,49.50
2018-05-29T10:32:01.424Z,50.10
2018-05-29T10:34:30.631Z,50.30
2018-05-29T10:36:59.879Z,50.70
2018-05-29T10:39:29.068Z,50.10
2018-05-29T10:41:58.236Z,50.30
2018-05-29T10:44:28.268Z,50.40
2018-05-29T10:46:58.281Z,50.40
2018-05-29T10:49:27.531Z,50.40
2018-05-29T10:51:56.703Z,50.70
2018-05-29T10:54:26.671Z,49.40
2018-05-29T10:56:56.617Z,49.60
2018-05-29T10:59:25.814Z,49.50
2018-05-29T11:01:55.007Z,49.70
2018-05-29T11:04:24.928Z,49.70
2018-05-29T11:06:54.935Z,49.20
2018-05-29T11:09:24.911Z,49.50
2018-05-29T11:11:54.085Z,49.30
2018-05-29T11:14:23.324Z,49.30
2018-05-29T11:16:52.615Z,48.60
2018-05-29T11:19:21.784Z,48.40
2018-05-29T11:21:50.921Z,48.80
2018-05-29T11:24:20.104Z,48.90
2018-05-29T11:26:49.316Z,48.80
2018-05-29T11:29:18.462Z,48.10
2018-05-29T11:31:47.697Z,48.20
2018-05-29T11:34:16.900Z,49.00
2018-05-29T11:36:46.077Z,48.00
2018-05-29T11:39:15.281Z,48.30
2018-05-29T11:41:44.505Z,47.30
2018-05-29T11:44:13.687Z,46.50
2018-05-29T11:47:00.814Z,43.70
2018-05-29T11:49:29.981Z,43.60
2018-05-29T11:51:59.130Z,43.00
2018-05-29T11:54:29.111Z,43.30
2018-05-29T11:56:58.332Z,43.30
2018-05-29T11:59:27.493Z,43.20
2018-05-29T12:01:56.734Z,43.30
2018-05-29T12:04:25.877Z,42.90
2018-05-29T12:06:55.835Z,41.80
2018-05-29T12:09:25.101Z,41.80
2018-05-29T12:12:06.007Z,41.10
2018-05-29T12:14:35.136Z,40.60
2018-05-29T12:17:04.290Z,40.90
2018-05-29T12:19:33.452Z,39.70
2018-05-29T12:22:02.617Z,39.10
2018-05-29T12:24:32.651Z,37.30
2018-05-29T12:27:02.665Z,37.90
2018-05-29T12:29:32.660Z,38.00
2018-05-29T12:32:02.679Z,37.00
2018-05-29T12:34:31.825Z,37.00
2018-05-29T12:37:01.059Z,37.20
2018-05-29T12:39:31.067Z,36.60
2018-05-29T12:42:00.232Z,36.60
2018-05-29T12:44:29.467Z,35.60
2018-05-29T12:46:58.671Z,35.50
2018-05-29T12:49:27.911Z,35.80
2018-05-29T12:51:57.830Z,35.00
2018-05-29T12:54:27.024Z,35.00
2018-05-29T12:56:57.041Z,36.10
2018-05-29T12:59:26.192Z,36.00
2018-05-29T13:01:55.466Z,35.80
2018-05-29T13:04:24.693Z,36.30
2018-05-29T13:06:53.839Z,36.70
2018-05-29T13:09:23.102Z,35.30
2018-05-29T13:11:52.312Z,35.00
2018-05-29T13:14:21.537Z,35.50
2018-05-29T13:16:50.789Z,36.70
2018-05-29T13:19:19.987Z,36.70
2018-05-29T13:21:49.142Z,37.00
2018-05-29T13:24:18.349Z,37.30
2018-05-29T13:26:47.607Z,37.50
2018-05-29T13:29:17.593Z,37.30
2018-05-29T13:31:46.805Z,37.30
2018-05-29T13:34:15.968Z,36.30
2018-05-29T13:36:47.159Z,35.80
2018-05-29T13:39:17.221Z,35.20
2018-05-29T13:41:46.417Z,35.20
2018-05-29T13:44:15.672Z,34.40
2018-05-29T13:46:44.697Z,33.20
2018-05-29T13:49:13.910Z,35.00
2018-05-29T13:51:43.143Z,36.70
2018-05-29T13:54:12.170Z,38.80
2018-05-29T13:56:41.955Z,39.00
2018-05-29T13:59:11.172Z,39.00
2018-05-29T14:01:40.331Z,38.40
2018-05-29T14:04:10.309Z,39.80
2018-05-29T14:06:40.297Z,39.90
2018-05-29T14:09:10.337Z,40.20
2018-05-29T14:11:40.367Z,39.60
2018-05-29T14:14:09.596Z,39.60
2018-05-29T14:16:38.796Z,39.40
2018-05-29T14:19:08.062Z,38.80
2018-05-29T14:21:37.189Z,38.30
2018-05-29T14:24:06.370Z,39.20
2018-05-29T14:26:35.577Z,40.00
2018-05-29T14:29:04.755Z,39.60
2018-05-29T14:31:33.997Z,40.20
2018-05-29T14:34:03.189Z,38.30
2018-05-29T14:36:33.191Z,37.80
2018-05-29T14:39:02.360Z,37.70
2018-05-29T14:41:31.548Z,37.90
2018-05-29T14:44:00.848Z,37.70
2018-05-29T14:46:30.028Z,39.60
2018-05-29T14:48:59.239Z,41.50
2018-05-29T14:51:29.193Z,60.40
2018-05-29T14:53:58.433Z,60.40
2018-05-29T14:56:27.619Z,91.30
2018-05-29T14:58:57.678Z,99.90
2018-05-29T15:01:26.894Z,99.90
2018-05-29T15:03:56.131Z,99.90
2018-05-29T15:06:25.425Z,99.90
2018-05-29T15:08:54.664Z,99.90
2018-05-29T15:11:24.613Z,99.90
2018-05-29T15:13:53.844Z,99.90
2018-05-29T15:16:23.090Z,99.90
2018-05-29T15:18:52.342Z,99.90
2018-05-29T15:21:21.614Z,99.90
2018-05-29T15:23:50.850Z,99.90
2018-05-29T15:26:20.174Z,99.90
2018-05-29T15:28:50.162Z,99.90
2018-05-29T15:31:19.454Z,99.90
2018-05-29T15:33:48.654Z,99.90
2018-05-29T15:36:17.843Z,99.90
2018-05-29T15:38:47.048Z,99.90
2018-05-29T15:41:16.327Z,99.90
2018-05-29T15:43:45.586Z,99.90
2018-05-29T15:46:14.894Z,99.90
2018-05-29T15:48:44.141Z,99.90
2018-05-29T15:51:13.378Z,99.90
2018-05-29T15:53:43.393Z,99.90
2018-05-29T15:56:13.397Z,99.90
2018-05-29T15:58:43.399Z,99.90
2018-05-29T16:01:12.627Z,99.90
2018-05-29T16:03:42.728Z,99.90
2018-05-29T16:06:11.967Z,99.90
2018-05-29T16:08:41.227Z,99.90
2018-05-29T16:11:10.452Z,99.90
2018-05-29T16:13:40.246Z,99.90
2018-05-29T16:16:10.246Z,99.90
2018-05-29T16:18:39.450Z,99.90
2018-05-29T16:21:08.742Z,99.90
2018-05-29T16:23:37.949Z,99.90
2018-05-29T16:26:07.252Z,99.90
2018-05-29T16:28:36.512Z,99.90
2018-05-29T16:31:05.710Z,99.90
2018-05-29T16:33:34.938Z,99.90
2018-05-29T16:36:05.387Z,99.90
2018-05-29T16:38:35.459Z,99.90
2018-05-29T16:41:04.687Z,99.90
2018-05-29T16:43:33.888Z,99.90
2018-05-29T16:46:03.885Z,99.90
2018-05-29T16:48:33.169Z,99.90
2018-05-29T16:51:02.415Z,99.90
2018-05-29T16:53:32.374Z,99.90
2018-05-29T16:56:18.573Z,99.90
2018-05-29T16:58:47.860Z,99.90
2018-05-29T17:01:17.121Z,99.90
2018-05-29T17:03:54.207Z,99.90
2018-05-29T17:06:33.878Z,99.90
2018-05-29T17:09:03.130Z,99.90
2018-05-29T17:11:32.451Z,99.90
2018-05-29T17:14:02.469Z,99.90
2018-05-29T17:16:40.539Z,99.90
2018-05-29T17:19:30.357Z,99.90
2018-05-29T17:22:10.799Z,99.90
2018-05-29T17:24:47.377Z,99.90
2018-05-29T17:27:17.424Z,99.90
2018-05-29T17:30:00.289Z,99.90
2018-05-29T17:32:29.471Z,99.90
2018-05-29T17:34:59.358Z,99.90
2018-05-29T17:37:41.798Z,99.90
2018-05-29T17:40:11.021Z,99.90
2018-05-29T17:42:40.256Z,99.90
2018-05-29T17:45:09.529Z,99.90
2018-05-29T17:47:39.538Z,99.90
2018-05-29T17:50:08.738Z,99.90
2018-05-29T17:52:37.932Z,99.90
2018-05-29T17:55:07.252Z,99.90
2018-05-29T17:57:36.545Z,99.90
2018-05-29T18:00:08.688Z,99.90
2018-05-29T18:02:55.555Z,99.90
2018-05-29T18:05:24.789Z,99.90
2018-05-29T18:07:54.020Z,99.90
2018-05-29T18:10:23.325Z,99.90
2018-05-29T18:12:53.391Z,99.90
2018-05-29T18:15:22.667Z,99.90
2018-05-29T18:17:51.946Z,99.90
2018-05-29T18:20:21.196Z,99.90
2018-05-29T18:22:50.430Z,99.90
2018-05-29T18:25:19.674Z,99.90
2018-05-29T18:27:48.930Z,99.90
2018-05-29T18:30:19.155Z,99.90
2018-05-29T18:32:48.333Z,99.90
2018-05-29T18:35:17.448Z,99.90
2018-05-29T18:37:46.873Z,99.90
2018-05-29T18:40:16.883Z,99.90
2018-05-29T18:42:46.885Z,99.90
2018-05-29T18:45:20.184Z,99.90
2018-05-29T18:47:50.211Z,99.90
2018-05-29T18:50:19.559Z,99.90
2018-05-29T18:52:49.503Z,99.90
2018-05-29T18:55:18.791Z,99.90
2018-05-29T18:57:48.058Z,99.90
2018-05-29T19:00:17.496Z,99.90
2018-05-29T19:02:46.879Z,99.90
2018-05-29T19:05:16.923Z,99.90
2018-05-29T19:07:46.155Z,99.90
2018-05-29T19:10:15.973Z,99.90
2018-05-29T19:12:51.627Z,99.90
2018-05-29T19:15:21.687Z,99.90
2018-05-29T19:17:50.898Z,99.90
2018-05-29T19:20:20.149Z,99.90
2018-05-29T19:22:49.470Z,99.90
2018-05-29T19:25:19.413Z,99.90
2018-05-29T19:27:48.653Z,99.90
2018-05-29T19:30:17.897Z,99.90
2018-05-29T19:32:47.125Z,99.90
2018-05-29T19:35:17.192Z,99.90
2018-05-29T19:37:46.457Z,99.90
2018-05-29T19:40:17.463Z,99.90
2018-05-29T19:42:46.706Z,99.90
2018-05-29T19:45:16.711Z,99.90
2018-05-29T19:47:46.697Z,99.90
2018-05-29T19:50:15.918Z,99.90
2018-05-29T19:52:45.911Z,99.90
2018-05-29T19:55:15.206Z,99.90
2018-05-29T19:57:44.455Z,99.90
2018-05-29T20:00:13.762Z,99.90
2018-05-29T20:02:43.123Z,99.90
2018-05-29T20:05:12.349Z,99.90
2018-05-29T20:07:42.348Z,99.90
2018-05-29T20:10:11.766Z,99.90
2018-05-29T20:12:48.154Z,99.90
2018-05-29T20:15:17.479Z,99.90
2018-05-29T20:17:47.670Z,99.90
2018-05-29T20:20:16.948Z,99.90
2018-05-29T20:22:46.957Z,99.90
2018-05-29T20:25:16.253Z,99.90
2018-05-29T20:27:45.501Z,99.90
2018-05-29T20:30:14.854Z,99.90
2018-05-29T20:32:44.926Z,99.90
2018-05-29T20:35:14.244Z,99.90
2018-05-29T20:37:43.447Z,99.90
2018-05-29T20:40:12.694Z,99.90
2018-05-29T20:42:42.681Z,99.90
2018-05-29T20:45:12.018Z,99.90
2018-05-29T20:47:42.021Z,99.90
2018-05-29T20:50:11.296Z,99.90
2018-05-29T20:52:40.570Z,99.90
2018-05-29T20:55:09.793Z,99.90
2018-05-29T20:57:39.015Z,99.90
2018-05-29T21:00:08.285Z,99.90
2018-05-29T21:02:37.579Z,99.90
2018-05-29T21:05:06.826Z,99.90
2018-05-29T21:07:36.098Z,99.90
2018-05-29T21:10:05.372Z,99.90
2018-05-29T21:12:34.641Z,99.90
2018-05-29T21:15:03.914Z,99.90
2018-05-29T21:17:33.887Z,99.90
2018-05-29T21:20:03.146Z,99.90
2018-05-29T21:22:32.410Z,99.90
2018-05-29T21:25:01.643Z,99.90
2018-05-29T21:27:30.908Z,99.90
2018-05-29T21:30:00.122Z,99.90
2018-05-29T21:32:30.151Z,99.90
2018-05-29T21:35:00.128Z,99.90
2018-05-29T21:37:29.365Z,99.90
2018-05-29T21:39:59.349Z,99.90
2018-05-29T21:42:28.626Z,99.90
2018-05-29T21:44:57.839Z,99.90
2018-05-29T21:47:26.901Z,99.90
2018-05-29T21:49:56.102Z,99.90
2018-05-29T21:52:25.355Z,99.90
2018-05-29T21:54:54.591Z,99.90
2018-05-29T21:57:23.856Z,99.90
2018-05-29T21:59:53.974Z,99.90
2018-05-29T22:02:23.156Z,99.90
2018-05-29T22:04:52.353Z,99.90
2018-05-29T22:07:22.353Z,99.90
2018-05-29T22:09:51.585Z,99.90
2018-05-29T22:12:20.870Z,99.90
2018-05-29T22:14:50.207Z,99.90
2018-05-29T22:17:20.278Z,99.90
2018-05-29T22:19:49.579Z,99.90
2018-05-29T22:22:18.825Z,99.90
2018-05-29T22:24:48.087Z,99.90
2018-05-29T22:27:17.309Z,99.90
2018-05-29T22:29:46.599Z,99.90
2018-05-29T22:32:16.589Z,99.90
2018-05-29T22:34:45.894Z,99.90
2018-05-29T22:37:15.164Z,99.90
2018-05-29T22:39:44.389Z,99.90
2018-05-29T22:42:14.400Z,99.90
2018-05-29T22:44:43.615Z,99.90
2018-05-29T22:47:12.892Z,99.90
2018-05-29T22:49:42.151Z,99.90
2018-05-29T22:52:12.138Z,99.90
2018-05-29T22:54:41.366Z,99.90
2018-05-29T22:57:11.430Z,99.90
2018-05-29T22:59:40.743Z,99.90
2018-05-29T23:02:09.978Z,99.90
2018-05-29T23:04:39.355Z,99.90
2018-05-29T23:07:08.581Z,99.90
2018-05-29T23:09:37.826Z,99.90
2018-05-29T23:12:07.147Z,99.90
2018-05-29T23:14:37.246Z,99.90
2018-05-29T23:17:06.493Z,99.90
2018-05-29T23:19:35.765Z,99.90
2018-05-29T23:22:05.059Z,99.90
2018-05-29T23:24:34.379Z,99.90
2018-05-29T23:27:03.615Z,99.90
2018-05-29T23:29:32.863Z,99.90
2018-05-29T23:32:02.935Z,99.90
2018-05-29T23:34:32.230Z,99.90
2018-05-29T23:37:01.490Z,99.90
2018-05-29T23:39:35.798Z,99.90
2018-05-29T23:42:05.979Z,99.90
2018-05-29T23:44:35.363Z,99.90
2018-05-29T23:47:04.600Z,99.90
2018-05-29T23:49:33.813Z,99.90
2018-05-29T23:52:03.119Z,99.90
2018-05-29T23:54:32.372Z,99.90
2018-05-29T23:57:01.615Z,99.90
2018-05-29T23:59:30.805Z,99.90
